Terminal Aerodrome Forecast
Issued by NWS Shreveport, LA

Home | Current Version | Previous Version | Text Only | Print | Product List | Glossary On
Versions: 1 2 3 4 5 6 7 8 9 10 11 12 13 14 15
000
FTUS44 KSHV 281100 RRA
TAFTXK
TAF
KTXK 281143Z 2812/2912 00000KT P6SM FEW250
     FM281400 15006KT P6SM SCT060 SCT250
     FM290200 14004KT P6SM SCT250
     FM290600 17004KT P6SM BKN120=

USA.gov is the U.S. government's official web portal to all federal, state and local government web resources and services.